createdAt,value
2017-10-16T00:01:51.368Z,3.83
2017-10-16T00:04:20.241Z,4.90
2017-10-16T00:06:49.094Z,4.03
2017-10-16T00:09:18.002Z,3.20
2017-10-16T00:11:46.851Z,4.30
2017-10-16T00:14:15.707Z,4.30
2017-10-16T00:16:44.567Z,5.07
2017-10-16T00:19:13.442Z,5.20
2017-10-16T00:21:42.331Z,3.60
2017-10-16T00:24:11.182Z,4.30
2017-10-16T00:26:40.150Z,4.43
2017-10-16T00:29:09.023Z,4.00
2017-10-16T00:31:37.876Z,4.00
2017-10-16T00:34:06.775Z,4.30
2017-10-16T00:36:35.639Z,4.23
2017-10-16T00:39:04.501Z,4.17
2017-10-16T00:41:33.363Z,3.80
2017-10-16T00:44:02.215Z,3.70
2017-10-16T00:46:31.090Z,3.13
2017-10-16T00:48:59.944Z,3.70
2017-10-16T00:51:28.833Z,3.73
2017-10-16T00:53:57.684Z,3.80
2017-10-16T00:56:26.586Z,3.17
2017-10-16T00:58:55.466Z,3.90
2017-10-16T01:01:24.322Z,3.50
2017-10-16T01:03:53.180Z,3.80
2017-10-16T01:06:22.035Z,3.43
2017-10-16T01:08:50.914Z,3.23
2017-10-16T01:11:19.758Z,2.70
2017-10-16T01:13:48.736Z,2.67
2017-10-16T01:16:17.608Z,3.20
2017-10-16T01:18:46.455Z,3.17
2017-10-16T01:21:15.330Z,2.93
2017-10-16T01:23:44.198Z,2.70
2017-10-16T01:26:13.118Z,2.60
2017-10-16T01:28:41.985Z,3.10
2017-10-16T01:31:10.846Z,2.57
2017-10-16T01:33:39.708Z,2.30
2017-10-16T01:36:08.559Z,2.70
2017-10-16T01:38:37.432Z,2.50
2017-10-16T01:41:06.287Z,2.17
2017-10-16T01:43:35.178Z,2.20
2017-10-16T01:46:04.019Z,2.20
2017-10-16T01:48:32.883Z,2.50
2017-10-16T01:51:01.750Z,2.30
2017-10-16T01:53:30.595Z,2.30
2017-10-16T01:55:59.551Z,2.57
2017-10-16T01:58:28.401Z,2.20
2017-10-16T02:00:57.243Z,2.50
2017-10-16T02:03:26.130Z,2.33
2017-10-16T02:05:55.003Z,2.13
2017-10-16T02:08:23.890Z,2.67
2017-10-16T02:10:52.743Z,2.77
2017-10-16T02:13:21.643Z,2.27
2017-10-16T02:15:50.488Z,2.30
2017-10-16T02:18:19.332Z,2.60
2017-10-16T02:20:48.202Z,2.43
2017-10-16T02:23:17.051Z,1.90
2017-10-16T02:25:45.927Z,2.13
2017-10-16T02:28:14.782Z,2.50
2017-10-16T02:30:43.672Z,2.73
2017-10-16T02:33:12.539Z,2.10
2017-10-16T02:35:41.382Z,1.87
2017-10-16T02:38:10.280Z,1.60
2017-10-16T02:40:39.136Z,1.80
2017-10-16T02:43:08.027Z,1.60
2017-10-16T02:45:36.878Z,1.83
2017-10-16T02:48:05.914Z,1.80
2017-10-16T02:50:34.750Z,1.90
2017-10-16T02:53:03.596Z,1.90
2017-10-16T02:55:32.466Z,1.80
2017-10-16T02:58:01.314Z,1.80
2017-10-16T03:00:30.184Z,1.90
2017-10-16T03:02:59.144Z,1.70
2017-10-16T03:05:28.236Z,1.90
2017-10-16T03:07:57.083Z,1.50
2017-10-16T03:10:25.946Z,1.60
2017-10-16T03:12:54.817Z,1.70
2017-10-16T03:15:23.674Z,1.73
2017-10-16T03:17:52.542Z,2.20
2017-10-16T03:20:21.399Z,2.40
2017-10-16T03:22:50.304Z,2.13
2017-10-16T03:25:19.154Z,1.83
2017-10-16T03:27:48.082Z,1.90
2017-10-16T03:30:16.951Z,2.10
2017-10-16T03:32:45.834Z,2.10
2017-10-16T03:35:14.708Z,2.07
2017-10-16T03:37:43.551Z,2.70
2017-10-16T03:40:12.434Z,2.17
2017-10-16T03:42:41.279Z,1.40
2017-10-16T03:45:10.135Z,2.37
2017-10-16T03:47:38.995Z,2.00
2017-10-16T03:50:07.839Z,1.80
2017-10-16T03:52:36.717Z,2.37
2017-10-16T03:55:05.572Z,1.93
2017-10-16T03:57:34.438Z,2.10
2017-10-16T04:00:03.302Z,2.10
2017-10-16T04:02:32.195Z,2.07
2017-10-16T04:05:01.054Z,1.97
2017-10-16T04:07:29.938Z,2.37
2017-10-16T04:09:58.805Z,2.07
2017-10-16T04:12:27.701Z,2.00
2017-10-16T04:14:56.555Z,1.63
2017-10-16T04:17:25.433Z,2.37
2017-10-16T04:19:54.300Z,2.17
2017-10-16T04:22:23.157Z,2.77
2017-10-16T04:24:52.028Z,1.97
2017-10-16T04:27:20.887Z,2.33
2017-10-16T04:29:49.770Z,2.70
2017-10-16T04:32:18.615Z,2.40
2017-10-16T04:34:47.463Z,2.53
2017-10-16T04:37:16.342Z,2.67
2017-10-16T04:39:45.227Z,2.93
2017-10-16T04:42:14.096Z,2.50
2017-10-16T04:44:42.947Z,2.20
2017-10-16T04:47:11.821Z,2.20
2017-10-16T04:49:40.691Z,1.87
2017-10-16T04:52:09.542Z,2.00
2017-10-16T04:54:38.426Z,1.80
2017-10-16T04:57:07.283Z,1.80
2017-10-16T04:59:36.222Z,1.90
2017-10-16T05:02:05.065Z,1.80
2017-10-16T05:04:33.971Z,2.13
2017-10-16T05:09:38.227Z,2.10
2017-10-16T05:12:07.065Z,2.20
2017-10-16T05:14:35.959Z,2.80
2017-10-16T05:17:04.830Z,2.30
2017-10-16T05:19:33.680Z,2.30
2017-10-16T05:22:02.546Z,2.70
2017-10-16T05:24:32.721Z,2.97
2017-10-16T05:27:01.577Z,3.40
2017-10-16T05:29:30.415Z,3.67
2017-10-16T05:31:59.464Z,2.90
2017-10-16T05:34:28.318Z,2.80
2017-10-16T05:36:57.172Z,2.33
2017-10-16T05:39:26.051Z,2.40
2017-10-16T05:41:54.927Z,2.93
2017-10-16T05:44:23.810Z,12.40
2017-10-16T05:46:52.667Z,5.20
2017-10-16T05:49:21.557Z,2.70
2017-10-16T05:51:50.408Z,3.07
2017-10-16T05:54:19.274Z,5.20
2017-10-16T05:56:48.152Z,4.50
2017-10-16T05:59:17.014Z,4.03
2017-10-16T06:01:46.334Z,11.43
2017-10-16T06:04:15.202Z,5.40
2017-10-16T06:06:44.070Z,2.50
2017-10-16T06:09:13.007Z,2.60
2017-10-16T06:11:41.860Z,2.90
2017-10-16T06:14:10.721Z,2.50
2017-10-16T06:16:39.587Z,2.40
2017-10-16T06:19:08.443Z,2.20
2017-10-16T06:21:37.302Z,2.47
2017-10-16T06:24:06.168Z,2.60
2017-10-16T06:26:35.105Z,2.60
2017-10-16T06:29:03.981Z,2.53
2017-10-16T06:31:32.845Z,3.17
2017-10-16T06:34:01.716Z,2.33
2017-10-16T06:36:30.587Z,2.30
2017-10-16T06:38:59.439Z,2.90
2017-10-16T06:41:28.350Z,2.73
2017-10-16T06:43:57.212Z,2.70
2017-10-16T06:46:26.412Z,2.43
2017-10-16T06:48:55.291Z,10.30
2017-10-16T06:51:24.157Z,4.20
2017-10-16T06:53:53.034Z,4.17
2017-10-16T06:56:21.919Z,4.53
2017-10-16T06:58:50.806Z,2.97
2017-10-16T07:01:19.666Z,4.70
2017-10-16T07:03:48.555Z,3.93
2017-10-16T07:06:17.434Z,5.50
2017-10-16T07:08:46.307Z,5.60
2017-10-16T07:11:15.155Z,4.50
2017-10-16T07:13:44.055Z,5.00
2017-10-16T07:16:12.898Z,4.47
2017-10-16T07:18:41.775Z,3.37
2017-10-16T07:21:10.613Z,3.40
2017-10-16T07:23:39.595Z,6.20
2017-10-16T07:26:08.438Z,2.90
2017-10-16T07:28:37.338Z,3.57
2017-10-16T07:31:06.250Z,3.10
2017-10-16T07:33:35.152Z,2.80
2017-10-16T07:36:03.996Z,3.00
2017-10-16T07:38:32.898Z,2.03
2017-10-16T07:41:01.765Z,2.03
2017-10-16T07:43:30.617Z,2.20
2017-10-16T07:45:59.494Z,2.10
2017-10-16T07:48:28.350Z,2.13
2017-10-16T07:50:57.264Z,2.30
2017-10-16T07:53:26.097Z,3.07
2017-10-16T07:55:54.960Z,3.83
2017-10-16T07:58:23.843Z,4.57
2017-10-16T08:00:52.687Z,3.90
2017-10-16T08:03:21.566Z,3.60
2017-10-16T08:05:50.419Z,2.90
2017-10-16T08:08:19.331Z,2.80
2017-10-16T08:10:48.194Z,2.87
2017-10-16T08:13:17.062Z,2.27
2017-10-16T08:15:45.964Z,2.17
2017-10-16T08:18:14.953Z,2.33
2017-10-16T08:20:43.846Z,2.53
2017-10-16T08:23:12.692Z,2.43
2017-10-16T08:25:41.590Z,2.63
2017-10-16T08:28:10.439Z,2.07
2017-10-16T08:30:39.306Z,1.60
2017-10-16T08:33:08.187Z,2.20
2017-10-16T08:35:37.031Z,1.83
2017-10-16T08:38:06.890Z,1.90
2017-10-16T08:40:35.756Z,1.87
2017-10-16T08:43:04.642Z,1.83
2017-10-16T08:45:33.505Z,1.93
2017-10-16T08:48:02.779Z,2.07
2017-10-16T08:50:31.646Z,1.80
2017-10-16T08:53:00.496Z,1.93
2017-10-16T08:55:29.375Z,2.20
2017-10-16T08:57:58.228Z,1.87
2017-10-16T09:00:39.783Z,2.10
2017-10-16T09:03:08.635Z,2.23
2017-10-16T09:05:37.512Z,2.03
2017-10-16T09:08:06.370Z,2.60
2017-10-16T09:10:35.214Z,2.53
2017-10-16T09:13:04.091Z,2.03
2017-10-16T09:15:32.955Z,2.37
2017-10-16T09:18:02.003Z,2.33
2017-10-16T09:20:30.838Z,2.30
2017-10-16T09:22:59.682Z,2.40
2017-10-16T09:25:28.667Z,2.20
2017-10-16T09:27:57.515Z,2.60
2017-10-16T09:30:26.384Z,2.60
2017-10-16T09:32:55.232Z,1.70
2017-10-16T09:35:24.101Z,2.80
2017-10-16T09:37:52.964Z,1.90
2017-10-16T09:40:21.820Z,2.20
2017-10-16T09:42:50.673Z,2.33
2017-10-16T09:45:19.579Z,2.23
2017-10-16T09:47:48.444Z,3.00
2017-10-16T09:50:17.315Z,2.70
2017-10-16T09:52:46.186Z,2.50
2017-10-16T09:55:15.042Z,2.83
2017-10-16T09:57:43.927Z,2.40
2017-10-16T10:00:12.771Z,2.03
2017-10-16T10:02:41.672Z,2.37
2017-10-16T10:05:10.531Z,2.70
2017-10-16T10:07:39.374Z,2.33
2017-10-16T10:10:08.243Z,2.43
2017-10-16T10:12:37.100Z,3.00
2017-10-16T10:15:05.971Z,2.30
2017-10-16T10:17:34.813Z,2.70
2017-10-16T10:20:04.126Z,2.10
2017-10-16T10:22:32.986Z,2.87
2017-10-16T10:25:01.830Z,3.00
2017-10-16T10:27:30.698Z,3.17
2017-10-16T10:29:59.563Z,3.63
2017-10-16T10:32:28.441Z,3.27
2017-10-16T10:34:57.305Z,4.10
2017-10-16T10:37:26.466Z,7.60
2017-10-16T10:39:55.311Z,4.20
2017-10-16T10:42:24.154Z,3.33
2017-10-16T10:44:53.024Z,3.90
2017-10-16T10:47:21.874Z,3.97
2017-10-16T10:49:50.740Z,3.50
2017-10-16T10:52:19.597Z,3.93
2017-10-16T10:54:48.515Z,3.90
2017-10-16T10:57:17.389Z,3.50
2017-10-16T10:59:46.271Z,5.60
2017-10-16T11:02:15.163Z,6.57
2017-10-16T11:04:44.069Z,3.93
2017-10-16T11:07:12.946Z,3.80
2017-10-16T11:09:41.815Z,3.70
2017-10-16T11:12:10.713Z,3.57
2017-10-16T11:14:39.576Z,4.13
2017-10-16T11:17:08.492Z,4.10
2017-10-16T11:19:37.346Z,4.53
2017-10-16T11:22:06.299Z,3.23
2017-10-16T11:24:35.152Z,3.87
2017-10-16T11:27:04.744Z,6.20
2017-10-16T11:29:32.909Z,4.60
2017-10-16T11:32:01.778Z,4.97
2017-10-16T11:34:30.681Z,5.00
2017-10-16T11:36:59.530Z,3.93
2017-10-16T11:39:28.419Z,5.20
2017-10-16T11:41:57.276Z,3.60
2017-10-16T11:44:26.193Z,5.77
2017-10-16T11:46:55.043Z,3.60
2017-10-16T11:49:23.899Z,3.83
2017-10-16T11:51:52.793Z,3.83
2017-10-16T11:54:21.675Z,4.57
2017-10-16T11:56:50.550Z,3.60
2017-10-16T11:59:19.394Z,3.93
2017-10-16T12:01:48.446Z,4.03
2017-10-16T12:04:17.303Z,3.80
2017-10-16T12:06:46.209Z,3.50
2017-10-16T12:09:15.078Z,3.80
2017-10-16T12:11:43.937Z,4.27
2017-10-16T12:14:12.802Z,4.10
2017-10-16T12:16:41.681Z,4.10
2017-10-16T12:19:10.551Z,4.23
2017-10-16T12:21:39.398Z,5.90
2017-10-16T12:24:08.291Z,4.63
2017-10-16T12:26:37.169Z,3.67
2017-10-16T12:29:06.040Z,3.83
2017-10-16T12:31:34.919Z,4.13
2017-10-16T12:34:03.797Z,4.20
2017-10-16T12:36:32.662Z,4.77
2017-10-16T12:39:01.525Z,5.13
2017-10-16T12:41:30.417Z,5.60
2017-10-16T12:43:59.271Z,4.33
2017-10-16T12:46:28.120Z,4.00
2017-10-16T12:48:57.005Z,5.10
2017-10-16T12:51:25.881Z,5.00
2017-10-16T12:53:54.741Z,4.23
2017-10-16T12:56:23.606Z,4.17
2017-10-16T12:58:52.538Z,4.13
2017-10-16T13:01:21.396Z,4.50
2017-10-16T13:03:50.274Z,3.80
2017-10-16T13:06:19.122Z,5.60
2017-10-16T13:08:47.978Z,8.70
2017-10-16T13:11:16.855Z,4.43
2017-10-16T13:13:45.742Z,5.20
2017-10-16T13:16:14.642Z,7.00
2017-10-16T13:18:43.483Z,4.57
2017-10-16T13:21:12.344Z,3.37
2017-10-16T13:23:41.210Z,3.47
2017-10-16T13:26:10.057Z,4.90
2017-10-16T13:28:39.348Z,3.80
2017-10-16T13:31:08.219Z,3.63
2017-10-16T13:33:37.123Z,4.13
2017-10-16T13:36:05.970Z,4.47
2017-10-16T13:38:34.831Z,3.70
2017-10-16T13:41:03.724Z,4.50
2017-10-16T13:43:32.588Z,4.90
2017-10-16T13:46:01.458Z,7.00
2017-10-16T13:48:30.323Z,4.83
2017-10-16T13:50:59.215Z,4.07
2017-10-16T13:53:28.102Z,4.47
2017-10-16T13:55:56.965Z,3.53
2017-10-16T13:58:25.842Z,3.40
2017-10-16T14:00:54.679Z,3.63
2017-10-16T14:03:23.565Z,3.60
2017-10-16T14:05:52.435Z,3.53
2017-10-16T14:08:21.315Z,3.80
2017-10-16T14:10:50.171Z,4.10
2017-10-16T14:13:19.031Z,3.93
2017-10-16T14:15:47.877Z,4.00
2017-10-16T14:18:16.756Z,4.20
2017-10-16T14:20:45.630Z,4.40
2017-10-16T14:23:14.470Z,4.30
2017-10-16T14:25:44.617Z,3.50
2017-10-16T14:28:13.496Z,3.60
2017-10-16T14:30:42.385Z,4.53
2017-10-16T14:33:11.243Z,4.13
2017-10-16T14:35:40.237Z,4.37
2017-10-16T14:38:09.097Z,3.67
2017-10-16T14:40:37.948Z,4.20
2017-10-16T14:43:06.818Z,3.63
2017-10-16T14:45:35.683Z,4.43
2017-10-16T14:48:04.556Z,5.63
2017-10-16T14:50:33.417Z,4.83
2017-10-16T14:53:02.290Z,5.17
2017-10-16T14:55:31.142Z,4.90
2017-10-16T14:58:00.019Z,4.80
2017-10-16T15:00:28.890Z,4.70
2017-10-16T15:02:57.754Z,3.70
2017-10-16T15:05:26.598Z,3.90
2017-10-16T15:07:55.495Z,4.27
2017-10-16T15:10:24.379Z,4.10
2017-10-16T15:12:53.242Z,6.67
2017-10-16T15:15:22.122Z,4.40
2017-10-16T15:17:50.968Z,4.63
2017-10-16T15:20:19.831Z,4.47
2017-10-16T15:22:48.699Z,5.10
2017-10-16T15:25:17.599Z,4.10
2017-10-16T15:27:46.479Z,4.90
2017-10-16T15:30:15.343Z,4.70
2017-10-16T15:32:44.218Z,4.97
2017-10-16T15:35:13.072Z,5.50
2017-10-16T15:37:41.963Z,4.50
2017-10-16T15:40:10.808Z,5.70
2017-10-16T15:42:39.732Z,6.07
2017-10-16T15:45:08.600Z,5.70
2017-10-16T15:47:37.471Z,5.40
2017-10-16T15:50:06.336Z,6.53
2017-10-16T15:52:35.194Z,5.20
2017-10-16T15:55:04.076Z,5.83
2017-10-16T15:57:32.938Z,5.30
2017-10-16T16:00:01.991Z,6.00
2017-10-16T16:02:30.847Z,5.03
2017-10-16T16:04:59.713Z,5.30
2017-10-16T16:07:28.576Z,4.90
2017-10-16T16:09:57.458Z,4.80
2017-10-16T16:12:26.352Z,5.13
2017-10-16T16:14:55.246Z,5.60
2017-10-16T16:17:24.304Z,5.70
2017-10-16T16:19:53.190Z,5.83
2017-10-16T16:22:22.042Z,5.53
2017-10-16T16:24:50.947Z,6.00
2017-10-16T16:27:19.807Z,6.10
2017-10-16T16:29:48.688Z,5.77
2017-10-16T16:32:17.560Z,5.63
2017-10-16T16:34:46.427Z,5.93
2017-10-16T16:37:15.294Z,6.20
2017-10-16T16:39:44.162Z,6.90
2017-10-16T16:42:13.127Z,7.97
2017-10-16T16:44:42.001Z,7.23
2017-10-16T16:47:10.896Z,6.73
2017-10-16T16:49:39.775Z,7.40
2017-10-16T16:52:08.654Z,6.40
2017-10-16T16:54:37.564Z,5.63
2017-10-16T16:57:06.420Z,6.60
2017-10-16T16:59:35.283Z,6.43
2017-10-16T17:02:04.129Z,7.47
2017-10-16T17:04:33.051Z,9.60
2017-10-16T17:07:01.923Z,7.90
2017-10-16T17:09:30.882Z,7.53
2017-10-16T17:11:59.740Z,6.67
2017-10-16T17:14:28.598Z,8.03
2017-10-16T17:16:57.490Z,7.73
2017-10-16T17:19:26.339Z,8.70
2017-10-16T17:21:55.217Z,7.70
2017-10-16T17:24:24.071Z,8.27
2017-10-16T17:26:52.959Z,8.70
2017-10-16T17:29:21.812Z,20.23
2017-10-16T17:31:50.706Z,27.33
2017-10-16T17:34:19.673Z,11.10
2017-10-16T17:36:48.779Z,10.90
2017-10-16T17:39:17.648Z,9.70
2017-10-16T17:41:46.503Z,9.30
2017-10-16T17:44:15.371Z,10.17
2017-10-16T17:46:44.274Z,10.00
2017-10-16T17:49:13.213Z,11.63
2017-10-16T17:51:42.099Z,10.20
2017-10-16T17:54:10.984Z,9.87
2017-10-16T17:56:39.835Z,9.73
2017-10-16T17:59:08.720Z,10.50
2017-10-16T18:01:37.617Z,9.90
2017-10-16T18:04:06.482Z,11.03
2017-10-16T18:06:35.360Z,12.10
2017-10-16T18:09:04.255Z,15.80
2017-10-16T18:11:33.275Z,14.30
2017-10-16T18:14:02.127Z,9.67
2017-10-16T18:16:35.943Z,9.50
2017-10-16T18:19:04.791Z,10.07
2017-10-16T18:21:33.655Z,8.17
2017-10-16T18:24:02.526Z,12.30
2017-10-16T18:26:31.394Z,11.13
2017-10-16T18:29:00.262Z,10.40
2017-10-16T18:31:29.118Z,9.50
2017-10-16T18:33:58.039Z,8.43
2017-10-16T18:36:26.898Z,15.57
2017-10-16T18:38:55.767Z,16.70
2017-10-16T18:41:24.642Z,12.10
2017-10-16T18:43:53.515Z,12.23
2017-10-16T18:46:22.405Z,13.83
2017-10-16T18:48:51.254Z,10.87
2017-10-16T18:51:20.183Z,9.73
2017-10-16T18:53:49.062Z,9.27
2017-10-16T18:56:17.936Z,9.30
2017-10-16T18:58:46.812Z,9.47
2017-10-16T19:01:15.701Z,8.60
2017-10-16T19:03:44.579Z,6.60
2017-10-16T19:06:13.437Z,7.50
2017-10-16T19:08:42.431Z,7.63
2017-10-16T19:11:11.274Z,9.60
2017-10-16T19:13:40.173Z,8.63
2017-10-16T19:16:09.039Z,9.90
2017-10-16T19:18:37.904Z,9.03
2017-10-16T19:21:06.841Z,8.33
2017-10-16T19:23:35.721Z,7.70
2017-10-16T19:26:04.630Z,8.50
2017-10-16T19:28:33.506Z,7.97
2017-10-16T19:31:02.403Z,8.03
2017-10-16T19:33:31.294Z,8.97
2017-10-16T19:36:00.166Z,10.30
2017-10-16T19:38:29.052Z,10.40
2017-10-16T19:40:57.902Z,8.03
2017-10-16T19:43:26.898Z,8.57
2017-10-16T19:45:55.756Z,8.20
2017-10-16T19:48:24.682Z,8.70
2017-10-16T19:50:53.547Z,9.67
2017-10-16T19:53:22.401Z,7.97
2017-10-16T19:55:51.275Z,10.70
2017-10-16T19:58:20.141Z,15.50
2017-10-16T20:00:49.055Z,10.00
2017-10-16T20:03:18.021Z,8.13
2017-10-16T20:05:46.884Z,8.40
2017-10-16T20:08:15.782Z,9.17
2017-10-16T20:10:44.697Z,8.27
2017-10-16T20:13:13.576Z,9.50
2017-10-16T20:15:42.453Z,8.40
2017-10-16T20:18:11.793Z,13.80
2017-10-16T20:20:40.709Z,11.57
2017-10-16T20:23:09.554Z,9.13
2017-10-16T20:25:38.428Z,9.20
2017-10-16T20:28:07.290Z,9.70
2017-10-16T20:30:36.168Z,7.90
2017-10-16T20:33:05.031Z,8.97
2017-10-16T20:35:34.136Z,7.30
2017-10-16T20:38:03.002Z,8.00
2017-10-16T20:40:31.876Z,7.30
2017-10-16T20:43:00.765Z,7.20
2017-10-16T20:45:29.637Z,8.37
2017-10-16T20:47:58.554Z,8.53
2017-10-16T20:50:27.415Z,8.33
2017-10-16T20:52:56.531Z,7.70
2017-10-16T20:55:25.397Z,8.15
2017-10-16T20:57:54.272Z,8.17
2017-10-16T21:00:23.162Z,7.20
2017-10-16T21:02:52.018Z,7.27
2017-10-16T21:05:20.890Z,7.80
2017-10-16T21:07:49.740Z,8.10
2017-10-16T21:10:18.626Z,8.13
2017-10-16T21:12:47.490Z,9.83
2017-10-16T21:15:16.382Z,7.77
2017-10-16T21:17:45.263Z,15.57
2017-10-16T21:20:14.136Z,15.10
2017-10-16T21:22:43.003Z,9.13
2017-10-16T21:25:11.861Z,7.30
2017-10-16T21:27:40.920Z,6.60
2017-10-16T21:30:09.774Z,9.00
2017-10-16T21:32:38.652Z,13.07
2017-10-16T21:35:07.534Z,8.03
2017-10-16T21:37:36.388Z,6.90
2017-10-16T21:40:05.254Z,9.60
2017-10-16T21:42:34.102Z,7.13
2017-10-16T21:45:03.015Z,8.00
2017-10-16T21:47:31.883Z,7.50
2017-10-16T21:50:00.771Z,10.33
2017-10-16T21:52:29.658Z,8.07
2017-10-16T21:54:58.535Z,7.07
2017-10-16T21:57:27.429Z,7.10
2017-10-16T21:59:56.285Z,6.80
2017-10-16T22:02:25.335Z,6.03
2017-10-16T22:04:54.193Z,7.30
2017-10-16T22:07:23.057Z,6.37
2017-10-16T22:09:51.941Z,6.83
2017-10-16T22:12:20.790Z,7.60
2017-10-16T22:14:49.657Z,6.63
2017-10-16T22:17:18.509Z,7.33
2017-10-16T22:19:47.509Z,7.30
2017-10-16T22:22:16.362Z,7.90
2017-10-16T22:24:45.227Z,10.13
2017-10-16T22:27:14.098Z,7.37
2017-10-16T22:29:42.961Z,8.83
2017-10-16T22:32:11.840Z,8.13
2017-10-16T22:34:40.711Z,7.80
2017-10-16T22:37:09.594Z,8.70
2017-10-16T22:39:38.470Z,8.37
2017-10-16T22:42:07.343Z,8.13
2017-10-16T22:44:36.247Z,7.90
2017-10-16T22:47:05.109Z,8.60
2017-10-16T22:49:33.978Z,7.73
2017-10-16T22:52:02.853Z,8.07
2017-10-16T22:54:37.770Z,7.40
2017-10-16T22:57:06.631Z,9.50
2017-10-16T22:59:35.569Z,8.50
2017-10-16T23:02:04.458Z,8.73
2017-10-16T23:04:33.417Z,5.93
2017-10-16T23:07:02.287Z,6.10
2017-10-16T23:09:31.154Z,6.93
2017-10-16T23:12:00.579Z,6.17
2017-10-16T23:14:29.464Z,5.47
2017-10-16T23:16:58.326Z,6.40
2017-10-16T23:19:27.302Z,5.70
2017-10-16T23:21:56.154Z,6.30
2017-10-16T23:24:25.011Z,6.20
2017-10-16T23:26:53.891Z,6.93
2017-10-16T23:29:22.727Z,8.63
2017-10-16T23:31:51.611Z,7.83
2017-10-16T23:34:20.458Z,6.57
2017-10-16T23:36:49.319Z,5.97
2017-10-16T23:39:18.182Z,6.53
2017-10-16T23:41:47.082Z,6.73
2017-10-16T23:44:15.946Z,6.20
2017-10-16T23:46:44.825Z,6.27
2017-10-16T23:49:13.699Z,5.60
2017-10-16T23:51:42.558Z,6.23
2017-10-16T23:54:11.486Z,6.90
2017-10-16T23:56:40.381Z,6.20
2017-10-16T23:59:09.247Z,6.40
